Time;durP1;ratioP1;P1;durP2;ratioP2;P2;SDS_P1;SDS_P2;PMS_P1;PMS_P2;Temp;Humidity;BMP_temperature;BMP_pressure;BME280_temperature;BME280_humidity;BME280_pressure;Samples;Min_cycle;Max_cycle;Signal;HPM_P1;HPM_P2
2021/04/22 00:01:26;;;;;;;;;19.75;19.75;;;;;10.95;80.18;101642.84;5092509;28;11194;-70
2021/04/22 00:04:22;;;;;;;;;20.50;20.50;;;;;10.77;80.03;101648.22;5099193;28;11358;-70
2021/04/22 00:07:19;;;;;;;;;15.00;15.00;;;;;10.75;80.29;101650.47;5092530;28;11280;-70
2021/04/22 00:10:16;;;;;;;;;18.75;18.75;;;;;10.76;80.28;101648.53;5093075;28;11449;-70
2021/04/22 00:13:14;;;;;;;;;19.50;18.75;;;;;10.79;80.13;101653.44;5081182;28;11422;-70
2021/04/22 00:16:10;;;;;;;;;20.75;20.75;;;;;10.68;80.72;101652.03;5099923;28;11151;-70
2021/04/22 00:19:06;;;;;;;;;17.50;17.50;;;;;10.62;79.94;101661.53;5093578;28;11102;-70
2021/04/22 00:22:02;;;;;;;;;13.50;13.50;;;;;10.40;80.58;101665.81;5093238;28;11441;-70
2021/04/22 00:24:57;;;;;;;;;18.75;18.75;;;;;10.46;80.24;101661.03;5103191;28;11037;-70
2021/04/22 00:27:53;;;;;;;;;23.25;23.25;;;;;10.52;80.23;101665.34;5112281;28;11456;-70
2021/04/22 00:30:50;;;;;;;;;19.00;19.00;;;;;10.48;80.33;101659.59;5105490;28;11477;-70
2021/04/22 00:33:45;;;;;;;;;20.75;20.75;;;;;10.52;80.81;101660.63;5093257;28;11438;-70
2021/04/22 00:36:41;;;;;;;;;21.25;21.25;;;;;10.38;80.89;101665.31;5092139;28;11482;-70
2021/04/22 00:39:37;;;;;;;;;19.50;19.50;;;;;10.41;80.56;101677.72;5091106;28;11586;-71
2021/04/22 00:42:33;;;;;;;;;24.75;23.50;;;;;10.38;80.53;101681.09;5098009;28;11454;-70
2021/04/22 00:45:29;;;;;;;;;23.50;20.50;;;;;10.24;80.99;101670.81;5105867;28;11466;-70
2021/04/22 00:48:26;;;;;;;;;26.00;23.75;;;;;10.33;81.04;101683.94;5109739;28;11459;-71
2021/04/22 00:51:21;;;;;;;;;20.25;20.25;;;;;10.36;80.40;101683.34;5091631;28;11483;-70
2021/04/22 00:54:17;;;;;;;;;24.75;24.75;;;;;10.26;80.49;101676.88;5076945;28;12208;-70
2021/04/22 00:57:13;;;;;;;;;23.50;23.50;;;;;10.20;80.79;101680.03;5090560;28;11468;-70
2021/04/22 01:00:10;;;;;;;;;22.75;22.75;;;;;10.24;80.78;101681.88;5092563;28;11445;-70
2021/04/22 01:03:07;;;;;;;;;20.25;20.25;;;;;10.21;80.48;101681.66;5092559;28;11491;-70
2021/04/22 01:06:04;;;;;;;;;23.50;23.50;;;;;10.11;81.17;101682.63;5092711;28;12185;-70
2021/04/22 01:09:04;;;;;;;;;27.50;26.25;;;;;10.16;81.57;101674.25;5091810;28;11451;-70
2021/04/22 01:12:02;;;;;;;;;26.25;26.25;;;;;10.02;81.32;101670.66;5092497;28;12344;-70
2021/04/22 01:14:57;;;;;;;;;25.50;24.50;;;;;10.05;81.25;101669.25;5076786;28;11495;-70
2021/04/22 01:17:54;;;;;;;;;22.25;22.25;;;;;10.03;81.77;101672.28;5070416;28;11529;-70
2021/04/22 01:20:52;;;;;;;;;24.50;24.50;;;;;10.19;81.28;101678.34;5071301;28;11473;-70
2021/04/22 01:23:48;;;;;;;;;24.25;23.50;;;;;10.02;81.70;101679.75;5071581;28;11449;-71
2021/04/22 01:26:43;;;;;;;;;24.50;24.50;;;;;10.12;81.58;101676.00;5057903;28;11476;-71
2021/04/22 01:29:39;;;;;;;;;23.75;23.75;;;;;10.10;81.07;101672.72;5071875;28;11536;-70
2021/04/22 01:32:35;;;;;;;;;26.25;26.25;;;;;10.00;81.13;101682.00;5071230;28;11524;-70
2021/04/22 01:35:35;;;;;;;;;24.00;24.00;;;;;9.89;81.37;101683.31;5071992;28;12274;-70
2021/04/22 01:38:31;;;;;;;;;27.00;27.00;;;;;9.92;82.13;101682.69;5058202;28;11453;-70
2021/04/22 01:41:28;;;;;;;;;25.75;24.25;;;;;9.92;81.86;101684.66;5071067;28;11488;-70
2021/04/22 01:44:24;;;;;;;;;23.25;23.25;;;;;9.97;81.51;101688.16;5099455;28;11654;-70
2021/04/22 01:47:19;;;;;;;;;22.50;22.50;;;;;9.98;81.43;101691.75;5091298;28;11548;-70
2021/04/22 01:50:18;;;;;;;;;23.00;23.00;;;;;9.76;81.77;101692.38;5091446;28;11603;-71
2021/04/22 01:53:14;;;;;;;;;22.75;22.50;;;;;9.88;81.77;101694.66;5091334;28;11463;-70
2021/04/22 01:56:09;;;;;;;;;22.25;21.25;;;;;9.82;82.86;101693.13;5100710;28;11438;-71
2021/04/22 01:59:05;;;;;;;;;25.00;24.25;;;;;9.78;83.07;101701.16;5106056;28;11473;-70
2021/04/22 02:02:00;;;;;;;;;26.75;25.25;;;;;9.75;83.29;101694.31;5112330;28;11437;-69
2021/04/22 02:04:56;;;;;;;;;25.00;24.75;;;;;9.71;83.28;101701.56;5115113;28;11441;-69
2021/04/22 02:07:52;;;;;;;;;26.75;26.50;;;;;9.72;84.15;101696.84;5115304;28;11480;-69
2021/04/22 02:10:48;;;;;;;;;23.75;23.75;;;;;9.84;84.05;101711.03;5114015;28;11466;-69
2021/04/22 02:13:43;;;;;;;;;22.50;22.50;;;;;9.87;84.87;101704.06;5115760;28;11527;-69
2021/04/22 02:16:40;;;;;;;;;23.75;23.75;;;;;9.94;85.08;101707.28;5114822;28;11445;-69
2021/04/22 02:19:35;;;;;;;;;21.00;21.00;;;;;10.06;85.29;101710.38;5114935;28;11468;-69
2021/04/22 02:22:31;;;;;;;;;26.25;26.25;;;;;10.04;86.61;101709.84;5114947;28;11567;-69
2021/04/22 02:25:27;;;;;;;;;23.50;23.50;;;;;10.23;87.21;101713.44;5114630;28;11445;-69
2021/04/22 02:28:23;;;;;;;;;23.25;22.50;;;;;10.25;87.39;101722.22;5113080;28;11466;-70
2021/04/22 02:31:19;;;;;;;;;24.00;21.00;;;;;10.20;88.34;101718.72;5094319;28;12239;-69
2021/04/22 02:34:14;;;;;;;;;19.25;18.00;;;;;10.26;88.25;101718.34;5094702;28;11463;-69
2021/04/22 02:37:10;;;;;;;;;24.75;24.75;;;;;10.30;88.24;101726.88;5095188;28;11448;-70
2021/04/22 02:40:10;;;;;;;;;24.00;22.50;;;;;10.33;88.20;101733.72;5094179;28;11548;-70
2021/04/22 02:43:10;;;;;;;;;19.75;19.75;;;;;10.38;87.90;101725.34;5094814;28;11460;-70
2021/04/22 02:46:05;;;;;;;;;27.00;27.00;;;;;10.32;88.24;101735.66;5094184;28;11468;-70
2021/04/22 02:49:01;;;;;;;;;25.75;25.75;;;;;10.38;88.00;101736.41;5094148;28;11510;-70
2021/04/22 02:51:57;;;;;;;;;27.75;27.75;;;;;10.40;87.73;101742.44;5093981;28;11446;-70
2021/04/22 02:54:52;;;;;;;;;24.75;24.75;;;;;10.37;87.97;101740.31;5094056;28;12257;-70
2021/04/22 02:57:51;;;;;;;;;34.50;30.50;;;;;10.27;88.58;101741.28;5094210;28;11449;-70
2021/04/22 03:00:47;;;;;;;;;29.75;29.75;;;;;10.20;88.88;101747.19;5093976;28;11493;-69
2021/04/22 03:03:43;;;;;;;;;25.75;22.25;;;;;10.36;89.25;101746.97;5111549;28;11444;-69
2021/04/22 03:06:38;;;;;;;;;37.00;32.00;;;;;10.53;89.44;101752.72;5113279;28;11467;-69
2021/04/22 03:09:34;;;;;;;;;25.50;24.25;;;;;10.51;89.69;101757.75;5113950;28;11511;-69
2021/04/22 03:12:29;;;;;;;;;32.00;25.00;;;;;10.71;90.08;101757.34;5113836;28;12238;-70
2021/04/22 03:15:25;;;;;;;;;27.25;26.00;;;;;10.65;89.49;101758.56;5096956;28;12240;-70
2021/04/22 03:18:21;;;;;;;;;37.25;29.50;;;;;10.43;89.39;101756.50;5093461;28;11461;-70
2021/04/22 03:21:16;;;;;;;;;32.50;32.25;;;;;10.52;88.83;101762.16;5109793;28;11476;-70
2021/04/22 03:24:12;;;;;;;;;31.00;26.50;;;;;10.40;88.94;101762.63;5114083;28;11454;-70
2021/04/22 03:27:08;;;;;;;;;35.75;32.50;;;;;10.53;88.08;101774.84;5114126;28;11446;-70
2021/04/22 03:30:10;;;;;;;;;30.25;28.75;;;;;10.69;89.28;101765.13;5113838;28;12157;-70
2021/04/22 03:33:05;;;;;;;;;23.25;23.25;;;;;10.51;88.70;101777.09;5113069;28;11448;-69
2021/04/22 03:36:01;;;;;;;;;19.00;19.00;;;;;10.66;88.44;101774.06;5113769;28;11683;-70
2021/04/22 03:38:57;;;;;;;;;16.25;16.00;;;;;10.55;87.44;101783.66;5113102;28;11452;-70
2021/04/22 03:41:52;;;;;;;;;27.00;25.75;;;;;10.18;88.39;101788.13;5102388;28;11415;-70
2021/04/22 03:44:48;;;;;;;;;18.75;18.75;;;;;10.10;88.50;101786.03;5094553;28;11445;-70
2021/04/22 03:47:44;;;;;;;;;17.75;16.75;;;;;9.90;88.60;101791.91;5092790;28;11451;-70
2021/04/22 03:50:39;;;;;;;;;31.00;31.00;;;;;10.22;88.43;101797.50;5093050;28;11453;-70
2021/04/22 03:53:35;;;;;;;;;17.25;17.25;;;;;10.21;88.20;101806.88;5092411;28;12295;-70
2021/04/22 03:56:31;;;;;;;;;22.75;19.75;;;;;10.12;87.42;101811.47;5107040;28;11449;-70
2021/04/22 03:59:27;;;;;;;;;13.50;13.50;;;;;9.82;87.57;101814.69;5111568;28;11562;-70
2021/04/22 04:02:23;;;;;;;;;32.75;31.00;;;;;9.90;88.02;101809.31;5099953;28;11488;-74
2021/04/22 04:05:18;;;;;;;;;17.00;17.00;;;;;9.88;88.27;101816.22;5092712;28;11457;-75
2021/04/22 04:08:14;;;;;;;;;24.00;20.75;;;;;9.71;88.20;101817.56;5092196;28;11424;-75
2021/04/22 04:11:10;;;;;;;;;14.25;14.25;;;;;9.71;88.89;101825.88;5092673;28;11482;-75
2021/04/22 04:14:06;;;;;;;;;15.75;15.75;;;;;9.89;87.40;101828.91;5078951;28;11455;-75
2021/04/22 04:17:03;;;;;;;;;42.25;37.75;;;;;9.95;87.68;101831.31;5093325;28;11456;-75
2021/04/22 04:19:58;;;;;;;;;20.75;19.75;;;;;10.02;88.12;101831.78;5093471;28;11426;-75
2021/04/22 04:22:55;;;;;;;;;13.00;12.50;;;;;10.01;87.86;101835.66;5083576;28;11457;-75
2021/04/22 04:25:50;;;;;;;;;14.25;13.00;;;;;9.71;87.49;101831.38;5106556;28;11483;-76
2021/04/22 04:28:46;;;;;;;;;8.00;6.75;;;;;9.96;87.07;101835.72;5113175;28;11491;-76
2021/04/22 04:31:42;;;;;;;;;11.75;11.75;;;;;9.99;87.15;101846.19;5106264;28;11229;-74
2021/04/22 04:34:09;;;;;;;;;18.25;17.50;;;;;9.99;87.68;101842.63;5104856;28;11500;-75
2021/04/22 04:37:05;;;;;;;;;16.75;16.25;;;;;10.29;89.47;101850.47;5103292;28;11459;-75
2021/04/22 04:40:02;;;;;;;;;13.50;13.50;;;;;10.01;87.44;101854.19;5104322;28;11576;-76
2021/04/22 04:42:58;;;;;;;;;14.50;14.50;;;;;10.16;88.48;101861.44;5102273;28;11405;-75
2021/04/22 04:45:53;;;;;;;;;13.25;13.25;;;;;9.89;88.03;101853.78;5086288;28;11128;-73
2021/04/22 04:48:49;;;;;;;;;16.50;15.00;;;;;10.12;87.51;101857.59;5110163;28;11060;-73
2021/04/22 04:51:44;;;;;;;;;12.75;12.00;;;;;10.17;87.05;101860.31;5093043;28;11427;-70
2021/04/22 04:54:40;;;;;;;;;13.25;12.25;;;;;10.15;85.96;101860.59;5091852;28;11508;-73
2021/04/22 04:57:36;;;;;;;;;13.00;13.00;;;;;9.98;87.19;101874.13;5100987;28;11105;-73
2021/04/22 05:00:32;;;;;;;;;13.50;13.00;;;;;9.65;87.93;101867.66;5096913;28;11437;-73
2021/04/22 05:03:27;;;;;;;;;11.50;11.50;;;;;9.75;87.68;101865.59;5093901;28;11421;-73
2021/04/22 05:06:23;;;;;;;;;12.75;12.75;;;;;9.85;87.67;101872.09;5093294;28;11426;-73
2021/04/22 05:09:18;;;;;;;;;9.00;9.00;;;;;9.78;88.11;101874.41;5091151;28;11464;-73
2021/04/22 05:12:14;;;;;;;;;11.75;11.75;;;;;9.85;90.18;101875.69;5099351;28;11402;-72
2021/04/22 05:15:10;;;;;;;;;13.00;13.00;;;;;10.14;89.39;101881.09;5100763;28;12200;-73
2021/04/22 05:18:07;;;;;;;;;11.00;10.00;;;;;10.27;87.69;101874.84;5111194;28;11431;-74
2021/04/22 05:21:03;;;;;;;;;14.50;14.50;;;;;10.33;88.16;101875.56;5111682;28;11620;-72
2021/04/22 05:23:58;;;;;;;;;25.25;17.25;;;;;10.16;89.05;101884.38;5095829;28;11440;-72
2021/04/22 05:26:54;;;;;;;;;13.00;13.00;;;;;10.18;88.59;101890.41;5101199;28;11457;-73
2021/04/22 05:29:50;;;;;;;;;13.00;13.00;;;;;10.23;87.49;101889.56;5103237;28;11562;-72
2021/04/22 05:32:45;;;;;;;;;16.25;12.50;;;;;10.11;87.30;101897.44;5100775;28;12263;-72
2021/04/22 05:35:14;;;;;;;;;12.25;11.75;;;;;9.81;88.60;101901.44;5100274;28;11222;-72
2021/04/22 05:37:51;;;;;;;;;11.25;11.25;;;;;10.02;87.51;101909.16;5100582;28;11447;-72
2021/04/22 05:40:47;;;;;;;;;15.50;15.50;;;;;10.05;87.25;101905.00;5103955;28;11484;-73
2021/04/22 05:43:42;;;;;;;;;7.00;7.00;;;;;9.97;87.79;101920.31;5096005;28;11438;-72
2021/04/22 05:46:12;;;;;;;;;11.00;11.00;;;;;10.07;86.25;101910.22;5096980;28;11500;-74
2021/04/22 05:48:42;;;;;;;;;12.75;12.75;;;;;9.94;86.68;101911.78;5096126;28;11445;-73
2021/04/22 05:51:10;;;;;;;;;14.75;14.75;;;;;9.92;86.39;101911.25;5096621;28;11087;-74
2021/04/22 05:53:40;;;;;;;;;21.50;19.00;;;;;9.95;86.26;101916.16;5103162;28;11454;-73
2021/04/22 05:56:37;;;;;;;;;10.50;10.50;;;;;9.88;87.06;101911.00;5099105;28;11462;-72
2021/04/22 05:59:33;;;;;;;;;12.00;9.75;;;;;10.03;85.75;101916.31;5109361;28;11453;-74
2021/04/22 06:02:23;;;;;;;;;12.00;12.00;;;;;10.00;86.47;101919.69;5101573;28;11446;-74
2021/04/22 06:04:51;;;;;;;;;19.00;16.25;;;;;9.96;87.12;101918.63;5115696;28;11426;-74
2021/04/22 06:07:24;;;;;;;;;11.00;11.00;;;;;10.13;85.58;101920.09;5095862;28;11463;-74
2021/04/22 06:09:51;;;;;;;;;14.50;14.50;;;;;10.17;85.72;101918.38;5078789;28;11455;-75
2021/04/22 06:12:27;;;;;;;;;13.50;13.50;;;;;10.21;85.58;101924.94;5102093;28;11439;-73
2021/04/22 06:15:00;;;;;;;;;12.25;12.00;;;;;10.17;86.16;101919.19;5104260;28;10971;-73
2021/04/22 06:17:27;;;;;;;;;15.25;15.00;;;;;10.25;85.30;101926.84;5090183;28;11894;-74
2021/04/22 06:19:55;;;;;;;;;15.50;15.50;;;;;10.45;84.81;101924.91;5109040;28;11262;-73
2021/04/22 06:22:45;;;;;;;;;9.00;9.00;;;;;10.46;83.73;101932.06;5081883;28;11028;-73
2021/04/22 06:25:21;;;;;;;;;12.00;12.00;;;;;10.16;84.71;101934.13;5079780;28;10936;-73
2021/04/22 06:27:58;;;;;;;;;12.25;12.25;;;;;10.34;83.48;101940.00;5096504;28;11074;-72
2021/04/22 06:30:54;;;;;;;;;9.00;9.00;;;;;10.35;82.42;101936.94;5099270;28;11157;-74
2021/04/22 06:33:44;;;;;;;;;7.75;7.75;;;;;10.29;83.49;101933.44;5109044;28;11439;-74
2021/04/22 06:36:41;;;;;;;;;10.25;10.25;;;;;10.34;82.65;101942.75;5110218;28;11051;-74
2021/04/22 06:39:36;;;;;;;;;13.25;13.25;;;;;10.22;82.27;101938.50;5093986;28;11156;-72
2021/04/22 06:42:19;;;;;;;;;9.75;9.00;;;;;10.25;80.23;101956.44;5109751;28;11092;-75
2021/04/22 06:44:55;;;;;;;;;9.25;9.25;;;;;10.08;80.58;101954.16;5117233;28;11082;-74
2021/04/22 06:47:24;;;;;;;;;10.25;10.25;;;;;10.34;80.70;101951.06;5101002;28;10952;-74
2021/04/22 06:49:51;;;;;;;;;9.75;9.75;;;;;10.26;81.57;101955.31;5105461;28;11142;-74
2021/04/22 06:52:23;;;;;;;;;10.25;10.25;;;;;10.20;81.67;101954.53;5105314;28;11670;-74
2021/04/22 06:55:22;;;;;;;;;12.25;12.25;;;;;10.33;81.39;101949.41;5094727;28;11425;-75
2021/04/22 06:58:18;;;;;;;;;14.50;14.25;;;;;10.65;80.64;101957.75;5087729;28;11308;-74
2021/04/22 07:01:13;;;;;;;;;9.75;9.75;;;;;10.60;81.28;101949.56;5081804;28;11467;-74
2021/04/22 07:04:09;;;;;;;;;11.50;11.50;;;;;10.77;81.24;101954.56;5073953;28;10982;-73
2021/04/22 07:06:36;;;;;;;;;10.50;10.50;;;;;10.89;80.54;101949.38;5075445;28;11267;-72
2021/04/22 07:09:35;;;;;;;;;10.50;10.50;;;;;10.88;79.63;101950.47;5085822;28;10970;-74
2021/04/22 07:12:03;;;;;;;;;8.50;8.50;;;;;10.97;78.79;101942.31;5075842;28;10781;-73
2021/04/22 07:14:30;;;;;;;;;10.00;10.00;;;;;11.30;78.54;101959.72;5067895;28;10871;-74
2021/04/22 07:17:00;;;;;;;;;13.00;13.00;;;;;11.21;77.91;101961.56;5095358;28;10990;-75
2021/04/22 07:19:56;;;;;;;;;9.00;9.00;;;;;10.98;78.06;101957.81;5094573;28;10873;-74
2021/04/22 07:22:37;;;;;;;;;11.50;11.50;;;;;11.21;77.87;101965.16;5082243;28;10809;-73
2021/04/22 07:25:08;;;;;;;;;8.25;8.25;;;;;11.36;77.17;101964.06;5081815;28;11687;-74
2021/04/22 07:28:06;;;;;;;;;10.75;10.75;;;;;11.37;77.43;101974.00;5079564;28;10748;-75
2021/04/22 07:30:36;;;;;;;;;7.50;7.50;;;;;11.37;75.57;101977.59;5092746;28;10634;-74
2021/04/22 07:33:06;;;;;;;;;8.50;8.50;;;;;11.37;74.64;101982.31;5077832;28;10416;-73
2021/04/22 07:35:37;;;;;;;;;7.50;7.50;;;;;11.27;74.68;101979.72;5093305;28;10652;-74
2021/04/22 07:38:11;;;;;;;;;10.00;9.25;;;;;10.96;76.29;101976.66;5054779;28;10662;-74
2021/04/22 07:41:07;;;;;;;;;7.50;7.50;;;;;11.27;75.49;101982.47;5080882;28;10629;-74
2021/04/22 07:44:04;;;;;;;;;8.00;8.00;;;;;10.63;77.39;101982.16;5075483;28;11490;-74
2021/04/22 07:46:31;;;;;;;;;8.00;8.00;;;;;11.14;75.84;101986.88;5075215;28;11372;-74
2021/04/22 07:49:01;;;;;;;;;8.00;8.00;;;;;11.06;76.30;101993.09;5074906;28;10889;-73
2021/04/22 07:51:57;;;;;;;;;6.75;6.75;;;;;10.86;76.83;101991.47;5071263;28;10924;-74
2021/04/22 07:54:54;;;;;;;;;8.75;8.75;;;;;10.62;78.87;101991.56;5088166;28;10798;-74
2021/04/22 07:57:50;;;;;;;;;4.00;4.00;;;;;10.82;78.39;101996.00;5074846;28;10884;-74
2021/04/22 08:00:32;;;;;;;;;9.00;9.00;;;;;10.74;78.79;101989.19;5073091;28;11656;-73
2021/04/22 08:03:02;;;;;;;;;8.00;8.00;;;;;10.84;77.80;101997.31;5073744;28;10955;-73
2021/04/22 08:05:57;;;;;;;;;8.00;8.00;;;;;10.92;77.70;101995.81;5074068;28;10915;-74
2021/04/22 08:08:54;;;;;;;;;7.75;7.75;;;;;11.41;76.25;101988.88;5079121;28;10909;-75
2021/04/22 08:11:43;;;;;;;;;8.25;8.25;;;;;11.64;75.21;101990.66;5076348;28;10803;-74
2021/04/22 08:14:11;;;;;;;;;11.50;11.50;;;;;11.73;74.18;101987.16;5093723;28;10723;-74
2021/04/22 08:16:39;;;;;;;;;7.25;7.25;;;;;11.64;73.65;101995.38;5086523;28;10763;-74
2021/04/22 08:19:29;;;;;;;;;9.75;9.25;;;;;11.74;73.56;101995.19;5066559;28;10735;-74
2021/04/22 08:21:56;;;;;;;;;15.00;15.00;;;;;11.50;75.63;101989.84;5093669;28;10640;-73
2021/04/22 08:24:29;;;;;;;;;9.25;9.25;;;;;11.80;74.68;101988.44;5088266;28;10690;-75
2021/04/22 08:27:00;;;;;;;;;11.50;11.00;;;;;11.89;74.59;101991.34;5040577;28;10608;-74
2021/04/22 08:29:42;;;;;;;;;12.00;12.00;;;;;12.15;74.49;101988.84;5089628;28;10676;-75
2021/04/22 08:32:10;;;;;;;;;23.00;23.00;;;;;12.23;75.23;101985.34;5093313;28;10694;-74
2021/04/22 08:35:06;;;;;;;;;9.75;9.75;;;;;12.16;73.36;101976.59;5091754;28;10927;-74
2021/04/22 08:38:02;;;;;;;;;9.00;9.00;;;;;12.40;72.99;101979.13;5073163;28;10623;-74
2021/04/22 08:40:58;;;;;;;;;10.75;10.75;;;;;12.36;73.47;101972.56;5073703;28;10538;-74
2021/04/22 08:43:42;;;;;;;;;8.75;8.75;;;;;12.61;72.29;101968.38;5058799;28;10501;-74
2021/04/22 08:46:11;;;;;;;;;11.75;11.75;;;;;12.87;72.20;101966.63;5077478;28;10464;-74
2021/04/22 08:48:42;;;;;;;;;11.50;11.50;;;;;12.96;72.64;101972.25;5057038;28;10565;-74
2021/04/22 08:51:12;;;;;;;;;11.00;11.00;;;;;13.28;70.88;101973.97;5088578;28;10256;-75
2021/04/22 08:54:10;;;;;;;;;10.75;10.75;;;;;13.53;69.54;101966.91;5079910;28;10016;-75
2021/04/22 08:57:06;;;;;;;;;10.00;10.00;;;;;13.44;69.27;101968.81;5072837;28;10164;-74
2021/04/22 08:59:52;;;;;;;;;12.50;12.50;;;;;13.60;68.71;101965.31;5072439;28;10036;-75
2021/04/22 09:02:48;;;;;;;;;12.25;12.25;;;;;13.87;68.46;101967.03;5088058;28;10149;-74
2021/04/22 09:05:17;;;;;;;;;13.00;13.00;;;;;14.09;68.19;101970.84;5087194;28;9929;-75
2021/04/22 09:07:59;;;;;;;;;12.00;12.00;;;;;13.97;67.46;101971.50;5094859;28;10082;-73
2021/04/22 09:10:44;;;;;;;;;12.25;12.25;;;;;14.21;65.48;101961.88;5094309;28;10409;-75
2021/04/22 09:13:15;;;;;;;;;12.00;12.00;;;;;14.11;66.32;101965.81;5097150;28;9701;-74
2021/04/22 09:16:18;;;;;;;;;11.75;11.25;;;;;14.42;65.72;101965.69;5088717;28;9927;-74
2021/04/22 09:18:52;;;;;;;;;9.50;9.50;;;;;14.37;64.95;101955.53;5077949;28;9788;-74
2021/04/22 09:21:30;;;;;;;;;12.00;12.00;;;;;14.76;64.77;101959.31;5079888;28;9600;-74
2021/04/22 09:24:08;;;;;;;;;11.75;11.75;;;;;14.29;66.24;101961.91;5102121;28;9557;-74
2021/04/22 09:27:11;;;;;;;;;12.00;12.00;;;;;14.80;65.19;101956.69;5092657;28;9487;-74
2021/04/22 09:30:07;;;;;;;;;11.25;11.25;;;;;14.46;65.56;101961.94;5074185;28;9613;-74
2021/04/22 09:33:03;;;;;;;;;10.75;10.75;;;;;14.31;66.69;101956.81;5077510;28;9593;-74
2021/04/22 09:35:53;;;;;;;;;10.33;10.33;;;;;14.68;66.31;101957.38;5077984;28;10446;-73
2021/04/22 09:38:55;;;;;;;;;10.00;10.00;;;;;15.05;64.87;101961.44;5081230;28;9472;-74
2021/04/22 09:41:26;;;;;;;;;17.75;17.75;;;;;15.26;64.25;101961.56;5083000;28;9504;-75
2021/04/22 09:44:21;;;;;;;;;8.75;8.75;;;;;14.83;64.82;101958.84;5085242;28;9531;-74
2021/04/22 09:47:23;;;;;;;;;12.00;12.00;;;;;15.11;64.65;101960.13;5077230;28;9553;-75
2021/04/22 09:49:59;;;;;;;;;11.75;11.75;;;;;15.24;63.80;101947.94;5086636;28;9535;-73
2021/04/22 09:52:57;;;;;;;;;13.33;13.33;;;;;14.82;64.88;101954.41;5096321;28;9469;-74
2021/04/22 09:55:36;;;;;;;;;9.33;9.33;;;;;15.25;64.00;101948.75;5109889;28;10246;-74
2021/04/22 10:57:17;;;;;;;;;12.25;12.25;;;;;18.03;56.05;101934.13;5812385;23;8774;-74
2021/04/22 12:42:44;;;;;;;;;19.75;19.75;;;;;21.93;43.54;101869.81;4864792;29;8946;-74
2021/04/22 12:45:40;;;;;;;;;14.75;14.75;;;;;21.62;42.68;101868.97;4853409;29;8847;-73
2021/04/22 12:48:08;;;;;;;;;16.25;16.25;;;;;21.28;45.06;101864.38;4874164;29;8887;-74
2021/04/22 12:50:46;;;;;;;;;18.50;18.50;;;;;22.20;43.54;101868.63;4856833;29;8939;-74
2021/04/22 12:53:19;;;;;;;;;16.25;16.25;;;;;22.27;43.17;101870.72;4835089;29;8906;-74
2021/04/22 12:55:51;;;;;;;;;16.00;16.00;;;;;20.88;45.24;101862.00;4859496;29;8883;-74
2021/04/22 12:58:31;;;;;;;;;16.25;16.25;;;;;20.82;45.69;101855.88;4827117;29;8869;-75
2021/04/22 13:01:30;;;;;;;;;18.00;18.00;;;;;21.27;44.12;101860.75;4852142;29;8871;-75
2021/04/22 13:04:16;;;;;;;;;17.00;17.00;;;;;21.38;43.55;101849.66;4860317;29;9648;-73
2021/04/22 13:07:12;;;;;;;;;16.00;15.75;;;;;21.19;43.85;101846.91;4853523;29;8857;-75
2021/04/22 13:10:16;;;;;;;;;17.25;17.25;;;;;21.29;43.87;101847.09;4856194;29;8878;-74
2021/04/22 13:13:14;;;;;;;;;13.50;13.50;;;;;21.60;42.29;101850.81;4860099;29;8854;-74
2021/04/22 13:16:20;;;;;;;;;19.50;19.50;;;;;22.00;42.38;101843.75;4860198;29;8933;-75
2021/04/22 13:19:08;;;;;;;;;15.75;15.75;;;;;21.91;41.51;101842.03;4871859;29;8950;-72
2021/04/22 13:21:39;;;;;;;;;12.25;12.25;;;;;22.06;40.12;101845.84;4873547;29;8898;-74
2021/04/22 13:24:39;;;;;;;;;15.00;15.00;;;;;21.19;42.33;101844.91;4844820;29;8893;-72
2021/04/22 13:27:35;;;;;;;;;15.50;15.50;;;;;21.13;43.10;101837.94;4850839;29;8869;-72
2021/04/22 13:30:36;;;;;;;;;14.50;14.50;;;;;22.13;41.32;101833.91;4855154;29;8978;-75
2021/04/22 13:33:32;;;;;;;;;13.25;13.25;;;;;22.55;40.02;101827.16;4869480;29;9017;-73
2021/04/22 13:36:16;;;;;;;;;19.75;19.75;;;;;21.95;41.10;101832.81;4860100;29;8890;-73
2021/04/22 13:39:16;;;;;;;;;17.00;17.00;;;;;21.23;42.27;101831.69;4858330;29;8949;-73
2021/04/22 13:41:45;;;;;;;;;13.50;13.50;;;;;21.96;41.62;101831.63;4862474;29;8860;-74
2021/04/22 13:44:43;;;;;;;;;16.75;16.75;;;;;22.18;40.90;101820.28;4878501;29;8852;-74
2021/04/22 13:47:38;;;;;;;;;15.50;15.50;;;;;22.43;40.24;101822.59;4878588;29;8892;-74
2021/04/22 13:50:34;;;;;;;;;15.00;15.00;;;;;22.93;40.29;101815.50;4859659;29;8866;-74
2021/04/22 13:53:30;;;;;;;;;13.60;13.60;;;;;23.38;38.29;101821.09;4862688;29;8841;-75
2021/04/22 13:56:29;;;;;;;;;15.00;15.00;;;;;23.33;37.45;101816.66;4864471;29;8854;-74
2021/04/22 13:59:26;;;;;;;;;15.25;13.75;;;;;22.24;39.97;101814.28;4885473;29;8874;-74
2021/04/22 14:02:22;;;;;;;;;13.00;13.00;;;;;22.10;40.88;101809.31;4862726;29;8883;-74
2021/04/22 14:04:58;;;;;;;;;13.60;13.60;;;;;22.60;39.12;101807.06;4869247;29;9644;-74
2021/04/22 14:07:28;;;;;;;;;9.80;9.80;;;;;22.66;36.69;101806.34;4879693;29;8896;-74
2021/04/22 14:10:32;;;;;;;;;10.00;10.00;;;;;21.76;39.23;101809.22;4871037;29;8851;-73
2021/04/22 14:13:33;;;;;;;;;10.25;10.25;;;;;21.93;37.11;101819.13;4874360;29;8886;-75
2021/04/22 14:16:49;;;;;;;;;8.00;8.00;;;;;22.32;35.74;101797.13;4863977;29;9663;-76
2021/04/22 14:19:45;;;;;;;;;8.00;8.00;;;;;21.42;37.79;101807.50;4872977;29;8856;-75
2021/04/22 14:22:44;;;;;;;;;11.50;11.50;;;;;21.85;37.98;101806.97;4883672;29;8876;-75
2021/04/22 14:25:43;;;;;;;;;10.00;10.00;;;;;22.06;37.64;101803.59;4877651;29;8844;-76
2021/04/22 14:28:17;;;;;;;;;7.75;7.75;;;;;22.28;36.16;101807.53;4880755;29;8951;-76
2021/04/22 14:30:44;;;;;;;;;7.75;7.75;;;;;22.07;34.63;101810.03;4878231;29;8882;-75
2021/04/22 14:33:12;;;;;;;;;7.25;7.25;;;;;21.67;35.80;101805.88;4862951;29;8859;-75
2021/04/22 14:36:02;;;;;;;;;8.00;8.00;;;;;21.78;35.74;101804.03;4861833;29;8875;-74
2021/04/22 14:38:58;;;;;;;;;8.50;8.25;;;;;21.56;36.22;101796.47;4862323;29;8882;-75
2021/04/22 14:41:56;;;;;;;;;9.00;9.00;;;;;21.50;37.68;101795.97;4862505;29;8966;-76
2021/04/22 14:44:58;;;;;;;;;8.50;8.50;;;;;21.38;38.76;101793.38;4862420;29;8947;-75
2021/04/22 14:47:54;;;;;;;;;12.00;11.75;;;;;20.57;40.18;101799.19;4862268;29;8938;-75
2021/04/22 14:50:50;;;;;;;;;10.25;10.25;;;;;20.93;40.09;101797.00;4862472;29;8949;-75
2021/04/22 14:53:45;;;;;;;;;9.25;9.25;;;;;20.60;41.26;101797.63;4861392;29;8862;-75
2021/04/22 14:56:27;;;;;;;;;8.25;8.25;;;;;20.18;41.03;101787.16;4876858;29;10061;-75
2021/04/22 14:58:55;;;;;;;;;9.00;9.00;;;;;20.24;41.52;101782.84;4881262;29;8868;-75
2021/04/22 15:01:22;;;;;;;;;7.75;7.75;;;;;20.07;40.67;101792.53;4895608;29;8947;-75
2021/04/22 15:03:49;;;;;;;;;8.25;8.25;;;;;19.63;42.17;101778.78;4864578;29;8978;-75
2021/04/22 15:06:18;;;;;;;;;11.25;11.25;;;;;19.47;41.81;101785.53;4886676;29;8880;-75
2021/04/22 15:09:00;;;;;;;;;9.75;9.75;;;;;19.57;43.26;101782.22;4877734;29;8852;-75
2021/04/22 15:11:56;;;;;;;;;8.00;8.00;;;;;19.40;43.24;101781.41;4874409;29;9054;-75
2021/04/22 15:14:42;;;;;;;;;8.75;8.75;;;;;19.39;43.95;101778.94;4880377;29;9602;-75
2021/04/22 15:17:10;;;;;;;;;9.75;8.50;;;;;19.28;44.85;101780.72;4875189;29;8876;-76
2021/04/22 15:19:39;;;;;;;;;8.25;8.25;;;;;19.10;45.83;101783.91;4861944;29;8889;-75
2021/04/22 15:22:07;;;;;;;;;9.25;9.25;;;;;18.99;47.66;101782.00;4880619;29;8914;-76
2021/04/22 15:24:56;;;;;;;;;9.25;9.25;;;;;18.87;47.55;101777.31;4861712;29;8871;-76
2021/04/22 15:27:25;;;;;;;;;9.75;9.75;;;;;18.96;47.79;101780.72;4877924;29;8856;-76
2021/04/22 15:29:52;;;;;;;;;8.25;8.25;;;;;18.86;48.04;101778.44;4880130;29;8864;-76
2021/04/22 15:32:19;;;;;;;;;10.75;10.75;;;;;18.75;48.22;101783.78;4880253;29;8872;-76
2021/04/22 15:34:46;;;;;;;;;8.50;8.50;;;;;18.75;48.31;101775.38;4894725;29;8848;-75
2021/04/22 15:37:16;;;;;;;;;9.75;9.75;;;;;18.56;49.04;101775.25;4891665;29;8907;-76